createdAt,value
2023-05-23T00:03:43.297Z,16.10
2023-05-23T00:09:45.776Z,16.10
2023-05-23T00:15:49.067Z,16.10
2023-05-23T00:21:52.766Z,16.00
2023-05-23T00:27:55.266Z,15.90
2023-05-23T00:33:57.995Z,15.80
2023-05-23T00:40:00.955Z,15.70
2023-05-23T00:46:03.564Z,15.70
2023-05-23T00:52:06.073Z,15.60
2023-05-23T00:58:08.674Z,15.60
2023-05-23T01:04:12.084Z,15.60
2023-05-23T01:10:15.984Z,15.50
2023-05-23T01:16:36.766Z,15.60
2023-05-23T01:23:03.411Z,15.60
2023-05-23T01:29:14.123Z,15.70
2023-05-23T01:35:21.852Z,15.70
2023-05-23T01:41:24.641Z,15.50
2023-05-23T01:47:27.411Z,15.60
2023-05-23T01:53:31.257Z,15.50
2023-05-23T01:59:33.792Z,15.50
2023-05-23T02:05:36.730Z,15.50
2023-05-23T02:11:39.424Z,15.40
2023-05-23T02:17:42.014Z,15.40
2023-05-23T02:23:44.534Z,15.40
2023-05-23T02:29:46.968Z,15.50
2023-05-23T02:35:51.292Z,15.50
2023-05-23T02:41:53.774Z,15.60
2023-05-23T02:47:56.512Z,15.70
2023-05-23T02:54:00.431Z,15.80
2023-05-23T03:00:06.943Z,15.90
2023-05-23T03:06:11.238Z,15.80
2023-05-23T03:12:13.854Z,15.80
2023-05-23T03:18:17.030Z,15.80
2023-05-23T03:24:19.363Z,15.90
2023-05-23T03:30:22.113Z,16.00
2023-05-23T03:36:28.823Z,16.10
2023-05-23T03:42:31.365Z,16.30
2023-05-23T03:48:33.661Z,16.50
2023-05-23T03:54:37.058Z,16.70
2023-05-23T04:00:39.462Z,17.00
2023-05-23T04:06:43.581Z,17.30
2023-05-23T04:12:46.186Z,17.60
2023-05-23T04:18:52.285Z,17.90
2023-05-23T04:24:55.195Z,18.20
2023-05-23T04:30:59.116Z,18.50
2023-05-23T04:37:04.870Z,18.80
2023-05-23T04:43:10.542Z,18.70
2023-05-23T04:49:29.854Z,19.30
2023-05-23T04:55:32.641Z,19.70
2023-05-23T05:01:35.226Z,19.90
2023-05-23T05:07:37.869Z,20.50
2023-05-23T05:13:41.018Z,20.90
2023-05-23T05:19:43.734Z,21.40
2023-05-23T05:25:46.462Z,21.80
2023-05-23T05:31:49.189Z,21.80
2023-05-23T05:37:51.964Z,22.60
2023-05-23T05:43:54.749Z,27.80
2023-05-23T05:49:57.467Z,29.40
2023-05-23T05:56:00.195Z,31.10
2023-05-23T06:02:03.255Z,33.00
2023-05-23T06:08:06.194Z,31.90
2023-05-23T06:14:08.654Z,32.70
2023-05-23T06:20:14.246Z,33.50
2023-05-23T06:26:20.271Z,33.70
2023-05-23T06:32:22.780Z,33.30
2023-05-23T06:38:27.961Z,33.90
2023-05-23T06:44:30.678Z,33.10
2023-05-23T06:50:33.114Z,33.70
2023-05-23T06:56:35.690Z,33.90
2023-05-23T07:02:40.314Z,33.90
2023-05-23T07:08:44.245Z,34.60
2023-05-23T07:14:47.631Z,35.60
2023-05-23T07:20:51.676Z,34.20
2023-05-23T07:26:55.864Z,34.70
2023-05-23T07:32:59.298Z,35.40
2023-05-23T07:39:02.572Z,35.90
2023-05-23T07:45:05.635Z,34.20
2023-05-23T07:51:08.180Z,35.20
2023-05-23T07:57:10.962Z,33.40
2023-05-23T08:03:14.511Z,33.50
2023-05-23T08:09:29.067Z,33.40
2023-05-23T08:15:34.205Z,35.30
2023-05-23T08:21:44.568Z,35.20
2023-05-23T08:27:47.947Z,35.70
2023-05-23T08:34:28.747Z,35.40
2023-05-23T08:40:32.395Z,34.90
2023-05-23T08:46:48.059Z,35.10
2023-05-23T08:53:03.563Z,35.20
2023-05-23T08:59:09.795Z,36.00
2023-05-23T09:05:13.157Z,35.60
2023-05-23T09:11:15.860Z,33.50
2023-05-23T09:17:20.927Z,34.90
2023-05-23T09:23:23.835Z,35.60
2023-05-23T09:29:26.776Z,34.80
2023-05-23T09:35:29.335Z,33.50
2023-05-23T09:41:36.440Z,33.40
2023-05-23T09:47:40.083Z,33.80
2023-05-23T09:53:42.670Z,32.50
2023-05-23T09:59:51.467Z,33.70
2023-05-23T10:06:02.059Z,34.50
2023-05-23T10:12:43.289Z,33.80
2023-05-23T10:18:46.480Z,33.80
2023-05-23T10:24:49.659Z,33.50
2023-05-23T10:30:52.340Z,33.20
2023-05-23T10:37:05.520Z,33.00
2023-05-23T10:43:13.942Z,32.90
2023-05-23T10:49:17.626Z,32.80
2023-05-23T10:55:21.489Z,33.20
2023-05-23T11:01:24.463Z,33.30
2023-05-23T11:07:31.641Z,32.90
2023-05-23T11:14:00.996Z,32.50
2023-05-23T11:20:07.781Z,32.10
2023-05-23T11:26:35.082Z,32.20
2023-05-23T11:32:38.064Z,30.60
2023-05-23T11:38:40.976Z,30.90
2023-05-23T11:44:43.292Z,30.10
2023-05-23T11:50:51.186Z,30.20
2023-05-23T11:56:53.882Z,30.40
2023-05-23T12:02:56.750Z,29.60
2023-05-23T12:09:00.073Z,30.90
2023-05-23T12:15:02.531Z,32.00
2023-05-23T12:21:08.508Z,32.60
2023-05-23T12:27:12.069Z,32.60
2023-05-23T12:33:14.749Z,28.60
2023-05-23T12:39:17.334Z,27.60
2023-05-23T12:45:34.269Z,28.60
2023-05-23T12:51:37.085Z,30.00
2023-05-23T12:57:40.068Z,29.70
2023-05-23T13:03:42.606Z,29.00
2023-05-23T13:09:45.347Z,28.10
2023-05-23T13:15:49.646Z,27.70
2023-05-23T13:21:53.442Z,28.10
2023-05-23T13:27:56.571Z,28.80
2023-05-23T13:33:59.045Z,29.00
2023-05-23T13:40:03.839Z,28.10
2023-05-23T13:46:06.504Z,27.70
2023-05-23T13:52:09.305Z,26.90
2023-05-23T13:58:11.903Z,26.30
2023-05-23T14:04:14.894Z,25.80
2023-05-23T14:10:17.986Z,26.20
2023-05-23T14:16:20.628Z,26.60
2023-05-23T14:22:23.006Z,26.40
2023-05-23T14:28:25.511Z,25.60
2023-05-23T14:34:28.220Z,25.00
2023-05-23T14:40:31.028Z,24.50
2023-05-23T14:46:33.620Z,24.40
2023-05-23T14:52:35.999Z,24.30
2023-05-23T14:58:40.692Z,24.20
2023-05-23T15:04:43.336Z,23.80
2023-05-23T15:10:46.217Z,23.70
2023-05-23T15:16:50.777Z,23.50
2023-05-23T15:22:53.398Z,23.70
2023-05-23T15:28:55.967Z,23.80
2023-05-23T15:34:58.779Z,24.10
2023-05-23T15:41:01.894Z,24.10
2023-05-23T15:47:04.415Z,24.00
2023-05-23T15:53:06.956Z,23.80
2023-05-23T15:59:11.561Z,23.80
2023-05-23T16:05:13.972Z,23.90
2023-05-23T16:11:16.768Z,23.90
2023-05-23T16:17:19.161Z,23.80
2023-05-23T16:23:21.603Z,23.70
2023-05-23T16:29:24.095Z,23.70
2023-05-23T16:35:26.521Z,23.60
2023-05-23T16:41:28.886Z,23.60
2023-05-23T16:47:31.047Z,23.40
2023-05-23T16:53:33.496Z,23.30
2023-05-23T16:59:35.745Z,23.20
2023-05-23T17:05:39.528Z,23.00
2023-05-23T17:11:43.056Z,22.80
2023-05-23T17:17:45.470Z,22.60
2023-05-23T17:23:47.982Z,22.40
2023-05-23T17:29:50.508Z,22.30
2023-05-23T17:35:52.758Z,22.10
2023-05-23T17:41:56.049Z,22.00
2023-05-23T17:47:59.179Z,21.90
2023-05-23T17:54:03.318Z,21.80
2023-05-23T18:00:06.909Z,21.70
2023-05-23T18:06:14.919Z,21.60
2023-05-23T18:12:18.437Z,21.50
2023-05-23T18:18:21.108Z,21.40
2023-05-23T18:24:23.627Z,21.30
2023-05-23T18:30:27.261Z,21.20
2023-05-23T18:36:29.908Z,21.20
2023-05-23T18:42:32.982Z,21.10
2023-05-23T18:48:36.086Z,21.10
2023-05-23T18:54:38.904Z,21.00
2023-05-23T19:00:41.393Z,20.90
2023-05-23T19:06:45.626Z,20.70
2023-05-23T19:12:48.286Z,20.60
2023-05-23T19:18:50.747Z,20.60
2023-05-23T19:24:53.064Z,20.50
2023-05-23T19:30:55.346Z,20.30
2023-05-23T19:36:58.513Z,20.30
2023-05-23T19:43:01.864Z,20.10
2023-05-23T19:49:04.162Z,20.00
2023-05-23T19:55:07.037Z,19.90
2023-05-23T20:01:09.502Z,19.90
2023-05-23T20:07:12.022Z,19.80
2023-05-23T20:13:14.451Z,19.80
2023-05-23T20:19:17.928Z,19.70
2023-05-23T20:25:20.447Z,19.60
2023-05-23T20:31:23.050Z,19.50
2023-05-23T20:37:25.790Z,19.30
2023-05-23T20:43:29.322Z,19.20
2023-05-23T20:49:32.484Z,19.10
2023-05-23T20:55:35.925Z,19.10
2023-05-23T21:01:39.023Z,19.10
2023-05-23T21:07:41.782Z,19.00
2023-05-23T21:13:43.954Z,18.90
2023-05-23T21:19:46.812Z,18.70
2023-05-23T21:25:49.361Z,18.70
2023-05-23T21:31:51.541Z,18.60
2023-05-23T21:37:54.211Z,18.50
2023-05-23T21:43:58.014Z,18.40
2023-05-23T21:50:00.728Z,18.40
2023-05-23T21:56:03.190Z,18.30
2023-05-23T22:02:05.689Z,18.30
2023-05-23T22:08:08.717Z,18.20
2023-05-23T22:14:11.102Z,18.10
2023-05-23T22:20:16.419Z,18.00
2023-05-23T22:26:22.517Z,18.00
2023-05-23T22:32:25.152Z,17.90
2023-05-23T22:38:27.611Z,17.90
2023-05-23T22:44:30.170Z,17.80
2023-05-23T22:50:42.337Z,17.70
2023-05-23T22:56:44.938Z,17.70
2023-05-23T23:02:47.466Z,17.60
2023-05-23T23:08:50.433Z,17.60
2023-05-23T23:14:53.148Z,17.60
2023-05-23T23:20:55.598Z,17.50
2023-05-23T23:26:58.091Z,17.40
2023-05-23T23:33:00.495Z,17.30
2023-05-23T23:39:03.148Z,17.20
2023-05-23T23:45:06.325Z,17.20
2023-05-23T23:51:08.734Z,17.10
2023-05-23T23:57:14.410Z,17.10
